createdAt,value
2019-01-25T00:00:55.782Z,98356.61
2019-01-25T00:03:24.981Z,98359.21
2019-01-25T00:05:54.116Z,98362.09
2019-01-25T00:08:23.212Z,98358.44
2019-01-25T00:10:52.350Z,98360.59
2019-01-25T00:13:21.457Z,98356.25
2019-01-25T00:15:50.633Z,98362.13
2019-01-25T00:18:19.750Z,98360.03
2019-01-25T00:20:48.878Z,98356.05
2019-01-25T00:23:18.299Z,98358.64
2019-01-25T00:25:47.437Z,98361.00
2019-01-25T00:28:16.564Z,98365.68
2019-01-25T00:30:45.702Z,98366.47
2019-01-25T00:33:14.795Z,98367.97
2019-01-25T00:35:43.968Z,98369.84
2019-01-25T00:38:13.080Z,98368.47
2019-01-25T00:40:42.593Z,98370.23
2019-01-25T00:43:11.820Z,98374.33
2019-01-25T00:45:40.968Z,98372.97
2019-01-25T00:48:10.087Z,98370.42
2019-01-25T00:50:39.217Z,98371.33
2019-01-25T00:53:08.320Z,98378.77
2019-01-25T00:55:37.862Z,98376.03
2019-01-25T00:58:07.081Z,98376.69
2019-01-25T01:00:36.307Z,98377.44
2019-01-25T01:03:07.216Z,98384.81
2019-01-25T01:05:36.801Z,98383.38
2019-01-25T01:08:06.708Z,98377.67
2019-01-25T01:10:35.854Z,98386.25
2019-01-25T01:13:05.262Z,98385.55
2019-01-25T01:15:34.429Z,98388.52
2019-01-25T01:18:03.501Z,98388.45
2019-01-25T01:20:32.624Z,98390.22
2019-01-25T01:23:01.759Z,98397.28
2019-01-25T01:25:30.890Z,98399.09
2019-01-25T01:28:00.007Z,98392.72
2019-01-25T01:30:29.150Z,98394.80
2019-01-25T01:32:58.386Z,98395.98
2019-01-25T01:35:27.541Z,98393.30
2019-01-25T01:37:56.676Z,98397.54
2019-01-25T01:40:26.767Z,98390.31
2019-01-25T01:42:55.897Z,98389.33
2019-01-25T01:45:25.295Z,98386.37
2019-01-25T01:47:54.438Z,98385.78
2019-01-25T01:50:23.607Z,98389.25
2019-01-25T01:52:53.035Z,98393.36
2019-01-25T01:55:22.282Z,98394.80
2019-01-25T01:57:51.391Z,98390.83
2019-01-25T02:00:25.751Z,98395.89
2019-01-25T02:02:55.342Z,98388.84
2019-01-25T02:05:24.688Z,98397.02
2019-01-25T02:07:53.996Z,98395.92
2019-01-25T02:10:29.480Z,98394.72
2019-01-25T02:12:58.644Z,98390.00
2019-01-25T02:15:27.886Z,98386.11
2019-01-25T02:17:57.140Z,98389.25
2019-01-25T02:20:28.438Z,98390.09
2019-01-25T02:22:57.563Z,98380.73
2019-01-25T02:25:26.684Z,98381.71
2019-01-25T02:27:55.804Z,98378.65
2019-01-25T02:30:26.256Z,98376.76
2019-01-25T02:32:55.374Z,98376.59
2019-01-25T02:35:24.602Z,98375.55
2019-01-25T02:37:53.812Z,98368.13
2019-01-25T02:40:25.103Z,98375.64
2019-01-25T02:42:54.805Z,98378.88
2019-01-25T02:45:24.505Z,98375.13
2019-01-25T02:47:53.732Z,98374.86
2019-01-25T02:50:22.963Z,98371.98
2019-01-25T02:52:52.090Z,98378.96
2019-01-25T02:55:21.211Z,98379.25
2019-01-25T02:57:50.634Z,98382.24
2019-01-25T03:00:24.646Z,98384.19
2019-01-25T03:02:55.101Z,98383.02
2019-01-25T03:05:25.072Z,98379.89
2019-01-25T03:07:54.632Z,98381.20
2019-01-25T03:10:29.017Z,98388.09
2019-01-25T03:12:55.323Z,98387.71
2019-01-25T03:15:27.934Z,98388.10
2019-01-25T03:17:57.349Z,98394.87
2019-01-25T03:20:26.704Z,98392.93
2019-01-25T03:22:55.807Z,98392.66
2019-01-25T03:25:26.810Z,98392.91
2019-01-25T03:27:55.943Z,98390.63
2019-01-25T03:30:26.808Z,98393.91
2019-01-25T03:32:56.010Z,98392.91
2019-01-25T03:35:26.344Z,98398.18
2019-01-25T03:37:55.680Z,98406.78
2019-01-25T03:40:26.466Z,98409.38
2019-01-25T03:42:56.372Z,98411.14
2019-01-25T03:45:25.792Z,98407.96
2019-01-25T03:47:55.161Z,98409.05
2019-01-25T03:50:26.742Z,98412.84
2019-01-25T03:52:55.977Z,98411.88
2019-01-25T03:55:25.315Z,98416.93
2019-01-25T03:57:54.469Z,98410.63
2019-01-25T04:00:25.461Z,98416.63
2019-01-25T04:02:54.898Z,98421.17
2019-01-25T04:05:24.001Z,98429.83
2019-01-25T04:07:53.137Z,98423.37
2019-01-25T04:10:23.879Z,98425.41
2019-01-25T04:12:53.103Z,98423.66
2019-01-25T04:15:24.321Z,98425.86
2019-01-25T04:17:53.439Z,98419.93
2019-01-25T04:20:23.189Z,98415.90
2019-01-25T04:22:52.720Z,98421.23
2019-01-25T04:25:22.798Z,98419.93
2019-01-25T04:27:52.571Z,98423.33
2019-01-25T04:30:26.899Z,98422.35
2019-01-25T04:32:56.020Z,98424.80
2019-01-25T04:35:25.193Z,98425.77
2019-01-25T04:37:54.626Z,98425.43
2019-01-25T04:40:23.726Z,98417.84
2019-01-25T04:42:53.251Z,98421.92
2019-01-25T04:45:22.857Z,98425.70
2019-01-25T04:47:52.190Z,98420.50
2019-01-25T04:50:22.789Z,98421.44
2019-01-25T04:52:52.266Z,98419.59
2019-01-25T04:55:23.454Z,98418.78
2019-01-25T04:57:52.795Z,98415.72
2019-01-25T05:00:23.174Z,98422.75
2019-01-25T05:02:59.352Z,98426.10
2019-01-25T05:05:29.032Z,98424.89
2019-01-25T05:08:19.681Z,98430.21
2019-01-25T05:10:49.701Z,98430.67
2019-01-25T05:13:18.990Z,98428.14
2019-01-25T05:15:48.833Z,98429.51
2019-01-25T05:18:17.993Z,98434.14
2019-01-25T05:20:47.094Z,98428.47
2019-01-25T05:23:16.222Z,98443.08
2019-01-25T05:25:45.412Z,98440.77
2019-01-25T05:28:21.284Z,98439.98
2019-01-25T05:31:10.759Z,98437.25
2019-01-25T05:33:39.953Z,98440.03
2019-01-25T05:36:09.049Z,98433.75
2019-01-25T05:38:39.651Z,98438.05
2019-01-25T05:41:08.755Z,98443.30
2019-01-25T05:43:39.895Z,98449.47
2019-01-25T05:46:09.001Z,98448.88
2019-01-25T05:48:38.154Z,98445.30
2019-01-25T05:51:07.425Z,98445.63
2019-01-25T05:53:36.940Z,98454.92
2019-01-25T05:56:07.295Z,98453.41
2019-01-25T05:58:37.030Z,98452.66
2019-01-25T06:01:06.361Z,98460.91
2019-01-25T06:03:35.690Z,98455.25
2019-01-25T06:06:06.836Z,98465.73
2019-01-25T06:08:43.630Z,98472.89
2019-01-25T06:11:12.997Z,98478.44
2019-01-25T06:13:43.567Z,98477.77
2019-01-25T06:16:15.348Z,98477.69
2019-01-25T06:18:45.674Z,98478.38
2019-01-25T06:21:15.314Z,98476.16
2019-01-25T06:23:45.292Z,98474.33
2019-01-25T06:26:15.411Z,98474.92
2019-01-25T06:28:50.904Z,98480.92
2019-01-25T06:31:21.941Z,98472.26
2019-01-25T06:52:48.712Z,98482.53
2019-01-25T06:55:17.928Z,98484.23
2019-01-25T06:57:53.996Z,98489.84
2019-01-25T07:00:25.280Z,98500.63
2019-01-25T07:03:03.116Z,98504.95
2019-01-25T07:05:32.233Z,98503.59
2019-01-25T07:08:01.314Z,98507.50
2019-01-25T07:10:30.421Z,98511.58
2019-01-25T07:12:59.486Z,98514.09
2019-01-25T07:15:28.576Z,98513.56
2019-01-25T07:17:57.642Z,98514.53
2019-01-25T07:20:26.745Z,98511.52
2019-01-25T07:22:55.797Z,98510.17
2019-01-25T07:25:24.971Z,98519.05
2019-01-25T07:27:54.026Z,98510.70
2019-01-25T07:30:23.141Z,98509.65
2019-01-25T07:32:52.228Z,98518.71
2019-01-25T07:35:21.298Z,98513.16
2019-01-25T07:37:50.385Z,98522.59
2019-01-25T07:40:19.623Z,98521.31
2019-01-25T07:42:49.061Z,98524.62
2019-01-25T07:45:18.202Z,98520.93
2019-01-25T07:47:47.857Z,98518.22
2019-01-25T07:50:18.374Z,98507.95
2019-01-25T07:52:47.480Z,98507.41
2019-01-25T07:55:16.622Z,98509.40
2019-01-25T07:57:45.878Z,98511.06
2019-01-25T08:00:15.606Z,98505.99
2019-01-25T08:02:44.684Z,98508.32
2019-01-25T08:05:14.033Z,98503.03
2019-01-25T08:07:43.141Z,98493.86
2019-01-25T08:10:14.321Z,98490.26
2019-01-25T08:12:43.407Z,98496.16
2019-01-25T08:15:15.385Z,98499.94
2019-01-25T08:17:44.458Z,98502.89
2019-01-25T08:20:13.808Z,98506.27
2019-01-25T08:22:43.172Z,98503.03
2019-01-25T08:25:12.572Z,98492.70
2019-01-25T08:27:41.608Z,98498.41
2019-01-25T08:30:13.229Z,98505.58
2019-01-25T08:32:42.292Z,98501.78
2019-01-25T08:35:12.562Z,98508.99
2019-01-25T08:37:42.223Z,98512.70
2019-01-25T08:40:12.478Z,98513.90
2019-01-25T08:42:41.577Z,98518.94
2019-01-25T08:45:11.896Z,98521.03
2019-01-25T08:47:42.144Z,98537.77
2019-01-25T08:50:14.797Z,98528.97
2019-01-25T08:52:43.945Z,98532.84
2019-01-25T08:55:13.196Z,98535.17
2019-01-25T08:57:42.613Z,98533.19
2019-01-25T09:00:14.758Z,98532.45
2019-01-25T09:02:43.839Z,98530.60
2019-01-25T09:05:13.597Z,98538.81
2019-01-25T09:07:43.092Z,98537.06
2019-01-25T09:10:14.631Z,98542.90
2019-01-25T09:12:43.794Z,98533.88
2019-01-25T09:15:18.742Z,98536.98
2019-01-25T09:17:47.908Z,98546.12
2019-01-25T09:20:18.976Z,98545.41
2019-01-25T09:22:48.206Z,98552.55
2019-01-25T09:25:17.430Z,98554.51
2019-01-25T09:27:46.828Z,98552.33
2019-01-25T09:30:18.115Z,98548.95
2019-01-25T09:32:47.279Z,98553.09
2019-01-25T09:35:16.878Z,98550.20
2019-01-25T09:37:46.347Z,98547.63
2019-01-25T09:40:18.105Z,98533.69
2019-01-25T09:42:47.314Z,98529.41
2019-01-25T09:45:16.435Z,98526.39
2019-01-25T09:47:45.564Z,98522.78
2019-01-25T09:50:16.760Z,98527.22
2019-01-25T09:52:46.168Z,98525.18
2019-01-25T09:55:17.418Z,98538.09
2019-01-25T09:57:46.622Z,98537.39
2019-01-25T10:00:40.445Z,98530.14
2019-01-25T10:03:09.640Z,98539.43
2019-01-25T10:05:38.770Z,98538.73
2019-01-25T10:08:08.035Z,98536.41
2019-01-25T10:10:37.471Z,98533.72
2019-01-25T10:13:06.623Z,98538.59
2019-01-25T10:15:35.734Z,98533.09
2019-01-25T10:18:05.421Z,98526.75
2019-01-25T10:20:34.555Z,98531.17
2019-01-25T10:23:03.719Z,98525.45
2019-01-25T10:25:32.812Z,98523.05
2019-01-25T10:28:02.078Z,98522.45
2019-01-25T10:30:31.205Z,98516.53
2019-01-25T10:33:00.612Z,98517.30
2019-01-25T10:35:31.548Z,98514.34
2019-01-25T10:38:00.932Z,98514.48
2019-01-25T10:40:30.070Z,98509.91
2019-01-25T10:42:59.333Z,98510.04
2019-01-25T10:45:31.222Z,98508.18
2019-01-25T10:48:00.446Z,98509.35
2019-01-25T10:50:29.570Z,98509.88
2019-01-25T10:52:59.112Z,98505.04
2019-01-25T10:55:28.273Z,98498.94
2019-01-25T10:57:57.796Z,98497.53
2019-01-25T11:00:28.425Z,98507.76
2019-01-25T11:02:58.615Z,98507.39
2019-01-25T11:05:27.920Z,98504.88
2019-01-25T11:07:57.168Z,98510.53
2019-01-25T11:10:26.303Z,98506.63
2019-01-25T11:13:00.857Z,98508.72
2019-01-25T11:15:26.840Z,98504.98
2019-01-25T11:17:55.984Z,98508.45
2019-01-25T11:20:25.695Z,98511.63
2019-01-25T11:22:54.938Z,98493.45
2019-01-25T11:25:33.163Z,98491.12
2019-01-25T11:28:03.484Z,98478.93
2019-01-25T11:33:20.432Z,98479.17
2019-01-25T11:35:50.634Z,98478.48
2019-01-25T11:38:21.775Z,98479.11
2019-01-25T11:40:52.763Z,98475.94
2019-01-25T11:43:24.075Z,98484.05
2019-01-25T11:45:54.544Z,98480.18
2019-01-25T11:48:25.529Z,98480.33
2019-01-25T11:50:54.799Z,98480.66
2019-01-25T11:53:24.068Z,98473.53
2019-01-25T11:56:14.783Z,98477.70
2019-01-25T11:58:44.223Z,98464.66
2019-01-25T12:01:13.351Z,98460.45
2019-01-25T12:03:42.560Z,98456.39
2019-01-25T12:06:11.704Z,98459.92
2019-01-25T12:08:40.843Z,98448.78
2019-01-25T12:11:10.023Z,98453.27
2019-01-25T12:13:39.201Z,98454.39
2019-01-25T12:16:08.342Z,98456.59
2019-01-25T12:18:37.527Z,98456.98
2019-01-25T12:21:06.712Z,98456.55
2019-01-25T12:23:35.896Z,98450.62
2019-01-25T12:26:05.155Z,98450.09
2019-01-25T12:28:34.330Z,98457.97
2019-01-25T12:31:03.443Z,98449.28
2019-01-25T12:33:32.598Z,98442.79
2019-01-25T12:36:01.785Z,98443.53
2019-01-25T12:38:30.933Z,98449.66
2019-01-25T12:41:00.063Z,98449.12
2019-01-25T12:43:29.546Z,98441.42
2019-01-25T12:45:59.610Z,98437.86
2019-01-25T12:48:29.827Z,98442.81
2019-01-25T12:51:21.770Z,98436.72
2019-01-25T12:53:50.923Z,98435.71
2019-01-25T12:56:20.015Z,98438.08
2019-01-25T12:58:49.284Z,98434.75
2019-01-25T13:01:20.102Z,98437.20
2019-01-25T13:03:49.194Z,98434.75
2019-01-25T13:06:18.359Z,98437.27
2019-01-25T13:08:47.482Z,98431.10
2019-01-25T13:11:16.640Z,98427.49
2019-01-25T13:13:45.792Z,98438.28
2019-01-25T13:16:14.955Z,98432.51
2019-01-25T13:18:44.449Z,98438.97
2019-01-25T13:21:13.725Z,98438.39
2019-01-25T13:23:42.841Z,98436.38
2019-01-25T13:26:12.008Z,98435.92
2019-01-25T13:28:41.841Z,98430.96
2019-01-25T13:31:11.314Z,98426.61
2019-01-25T13:33:40.886Z,98430.19
2019-01-25T13:36:13.922Z,98431.86
2019-01-25T13:38:43.043Z,98441.19
2019-01-25T13:41:12.204Z,98442.76
2019-01-25T13:43:41.642Z,98449.75
2019-01-25T13:46:13.132Z,98441.31
2019-01-25T13:48:44.955Z,98442.24
2019-01-25T13:51:17.511Z,98452.95
2019-01-25T13:53:46.680Z,98442.89
2019-01-25T13:56:15.825Z,98439.36
2019-01-25T13:58:44.950Z,98436.47
2019-01-25T14:01:14.095Z,98441.38
2019-01-25T14:03:43.217Z,98440.97
2019-01-25T14:06:12.316Z,98441.42
2019-01-25T14:08:41.464Z,98439.33
2019-01-25T14:11:10.606Z,98433.14
2019-01-25T14:13:46.635Z,98432.91
2019-01-25T14:16:10.657Z,98421.33
2019-01-25T14:18:44.772Z,98428.18
2019-01-25T14:21:10.742Z,98423.32
2019-01-25T14:23:39.932Z,98415.03
2019-01-25T14:26:09.440Z,98412.65
2019-01-25T14:28:38.638Z,98403.93
2019-01-25T14:31:07.832Z,98412.81
2019-01-25T14:33:36.954Z,98403.28
2019-01-25T14:36:06.145Z,98401.06
2019-01-25T14:38:35.340Z,98407.21
2019-01-25T14:41:04.701Z,98395.21
2019-01-25T14:43:33.820Z,98380.67
2019-01-25T14:46:02.968Z,98377.13
2019-01-25T14:48:32.251Z,98376.02
2019-01-25T14:51:01.385Z,98388.41
2019-01-25T14:53:30.576Z,98384.10
2019-01-25T14:55:59.770Z,98383.83
2019-01-25T14:58:29.926Z,98379.84
2019-01-25T15:01:00.228Z,98366.48
2019-01-25T15:03:30.656Z,98371.56
2019-01-25T15:05:59.773Z,98360.22
2019-01-25T15:08:28.877Z,98357.57
2019-01-25T15:10:58.147Z,98361.23
2019-01-25T15:13:27.251Z,98358.38
2019-01-25T15:15:56.367Z,98351.19
2019-01-25T15:18:25.936Z,98351.57
2019-01-25T15:20:55.000Z,98346.73
2019-01-25T15:23:24.414Z,98347.80
2019-01-25T15:25:53.462Z,98346.81
2019-01-25T15:28:22.559Z,98352.88
2019-01-25T15:30:51.615Z,98351.47
2019-01-25T15:33:20.738Z,98345.75
2019-01-25T15:35:49.787Z,98351.67
2019-01-25T15:38:18.895Z,98362.55
2019-01-25T15:40:47.950Z,98359.94
2019-01-25T15:43:17.053Z,98360.39
2019-01-25T15:45:46.132Z,98363.71
2019-01-25T15:57:05.844Z,98354.85
2019-01-25T15:57:45.761Z,98355.77
2019-01-25T15:59:35.083Z,98347.63
2019-01-25T16:02:04.926Z,98353.23
2019-01-25T16:04:36.872Z,98356.23
2019-01-25T16:07:06.173Z,98351.67
2019-01-25T16:09:35.570Z,98353.23
2019-01-25T16:12:28.123Z,98354.82
2019-01-25T16:14:57.884Z,98358.17
2019-01-25T16:17:27.253Z,98349.88
2019-01-25T16:19:56.389Z,98361.48
2019-01-25T16:22:25.756Z,98358.17
2019-01-25T16:24:55.085Z,98347.51
2019-01-25T16:27:24.352Z,98348.61
2019-01-25T16:29:53.538Z,98347.52
2019-01-25T16:32:22.652Z,98354.33
2019-01-25T16:34:51.922Z,98346.45
2019-01-25T16:37:21.206Z,98357.99
2019-01-25T16:39:51.942Z,98351.64
2019-01-25T16:42:21.094Z,98349.17
2019-01-25T16:44:50.188Z,98341.37
2019-01-25T16:47:19.565Z,98337.52
2019-01-25T16:49:48.764Z,98341.59
2019-01-25T16:52:17.875Z,98343.73
2019-01-25T16:54:46.954Z,98335.75
2019-01-25T16:57:16.216Z,98325.46
2019-01-25T16:59:45.372Z,98314.63
2019-01-25T17:02:14.684Z,98314.48
2019-01-25T17:04:44.005Z,98313.81
2019-01-25T17:07:13.154Z,98310.48
2019-01-25T17:09:42.453Z,98306.39
2019-01-25T17:12:11.559Z,98299.72
2019-01-25T17:14:41.033Z,98299.43
2019-01-25T17:17:10.137Z,98289.45
2019-01-25T17:19:39.336Z,98286.75
2019-01-25T17:22:08.417Z,98285.37
2019-01-25T17:24:37.533Z,98297.95
2019-01-25T17:27:06.773Z,98292.34
2019-01-25T17:29:35.927Z,98283.05
2019-01-25T17:32:05.157Z,98278.82
2019-01-25T17:34:34.231Z,98285.66
2019-01-25T17:37:03.309Z,98296.41
2019-01-25T17:39:32.556Z,98286.87
2019-01-25T17:42:01.644Z,98283.49
2019-01-25T17:44:30.907Z,98283.36
2019-01-25T17:46:59.971Z,98262.77
2019-01-25T17:49:29.219Z,98255.95
2019-01-25T17:52:03.591Z,98253.80
2019-01-25T17:54:32.738Z,98259.56
2019-01-25T17:57:01.893Z,98267.80
2019-01-25T17:59:31.027Z,98273.22
2019-01-25T18:02:00.196Z,98286.48
2019-01-25T18:04:29.402Z,98285.72
2019-01-25T18:06:58.546Z,98268.38
2019-01-25T18:09:27.662Z,98251.34
2019-01-25T18:11:56.883Z,98252.80
2019-01-25T18:14:26.077Z,98254.09
2019-01-25T18:16:55.545Z,98255.53
2019-01-25T18:19:24.652Z,98249.47
2019-01-25T18:21:53.770Z,98252.47
2019-01-25T18:24:22.844Z,98257.23
2019-01-25T18:26:51.907Z,98243.67
2019-01-25T18:29:33.418Z,98252.05
2019-01-25T18:32:02.521Z,98257.13
2019-01-25T18:34:31.637Z,98246.04
2019-01-25T18:37:00.741Z,98244.67
2019-01-25T18:39:31.094Z,98249.52
2019-01-25T18:42:00.154Z,98241.67
2019-01-25T18:44:29.267Z,98245.91
2019-01-25T18:46:58.468Z,98240.21
2019-01-25T18:49:27.639Z,98232.13
2019-01-25T18:51:56.709Z,98230.13
2019-01-25T18:54:25.825Z,98226.43
2019-01-25T18:56:55.634Z,98227.81
2019-01-25T18:59:24.764Z,98223.91
2019-01-25T19:01:53.882Z,98227.50
2019-01-25T19:04:23.105Z,98227.28
2019-01-25T19:06:52.277Z,98227.73
2019-01-25T19:09:21.851Z,98223.53
2019-01-25T19:11:51.010Z,98218.11
2019-01-25T19:14:20.081Z,98206.36
2019-01-25T19:16:49.159Z,98197.20
2019-01-25T19:19:18.446Z,98188.43
2019-01-25T19:21:47.817Z,98180.20
2019-01-25T19:24:17.023Z,98174.31
2019-01-25T19:26:49.625Z,98170.63
2019-01-25T19:29:18.792Z,98169.16
2019-01-25T19:31:48.170Z,98161.39
2019-01-25T19:34:17.273Z,98166.88
2019-01-25T19:36:46.596Z,98154.17
2019-01-25T19:39:16.304Z,98149.41
2019-01-25T19:41:45.441Z,98144.22
2019-01-25T19:44:18.703Z,98130.12
2019-01-25T19:46:49.215Z,98126.27
2019-01-25T19:49:18.382Z,98113.39
2019-01-25T19:51:47.591Z,98113.77
2019-01-25T19:54:16.675Z,98103.30
2019-01-25T19:56:45.821Z,98104.98
2019-01-25T19:59:15.083Z,98102.54
2019-01-25T20:01:44.234Z,98096.96
2019-01-25T20:04:14.626Z,98094.72
2019-01-25T20:06:43.689Z,98090.41
2019-01-25T20:09:13.228Z,98099.70
2019-01-25T20:11:42.341Z,98095.86
2019-01-25T20:14:11.439Z,98084.62
2019-01-25T20:16:40.536Z,98083.94
2019-01-25T20:19:09.627Z,98081.23
2019-01-25T20:21:38.743Z,98080.77
2019-01-25T20:24:07.835Z,98072.67
2019-01-25T20:26:40.289Z,98067.50
2019-01-25T20:29:09.516Z,98066.57
2019-01-25T20:31:38.612Z,98064.13
2019-01-25T20:34:07.734Z,98063.52
2019-01-25T20:36:37.065Z,98058.28
2019-01-25T20:39:08.795Z,98048.80
2019-01-25T20:41:37.964Z,98045.16
2019-01-25T20:44:07.413Z,98044.69
2019-01-25T20:46:36.615Z,98037.19
2019-01-25T20:49:05.982Z,98030.47
2019-01-25T20:51:35.272Z,98024.88
2019-01-25T20:54:04.893Z,98026.56
2019-01-25T20:56:34.088Z,98018.70
2019-01-25T20:59:03.301Z,98016.00
2019-01-25T21:01:32.448Z,98024.23
2019-01-25T21:04:03.464Z,98030.55
2019-01-25T21:06:32.672Z,98025.69
2019-01-25T21:09:02.105Z,98014.36
2019-01-25T21:11:31.749Z,98002.48
2019-01-25T21:14:00.959Z,98008.77
2019-01-25T21:16:30.201Z,98001.27
2019-01-25T21:19:02.376Z,97999.96
2019-01-25T21:21:40.018Z,97988.79
2019-01-25T21:24:10.097Z,97984.91
2019-01-25T21:26:39.426Z,97979.72
2019-01-25T21:29:08.568Z,97967.55
2019-01-25T21:31:37.760Z,97966.11
2019-01-25T21:34:07.021Z,97964.52
2019-01-25T21:36:36.151Z,97956.01
2019-01-25T21:39:08.510Z,97946.94
2019-01-25T21:41:37.632Z,97957.32
2019-01-25T21:44:06.989Z,97948.72
2019-01-25T21:46:40.419Z,97955.03
2019-01-25T21:49:06.927Z,97947.27
2019-01-25T21:51:36.112Z,97932.33
2019-01-25T21:54:17.588Z,97925.03
